sensor_id;sensor_type;location;lat;lon;timestamp;pressure;altitude;pressure_sealevel;temperature;humidity
5679;BME280;2862;52.560;13.566;2022-07-06T00:00:00;101191.50;;;18.88;47.87
5679;BME280;2862;52.560;13.566;2022-07-06T00:10:06;101196.91;;;18.80;47.10
5679;BME280;2862;52.560;13.566;2022-07-06T00:20:10;101198.94;;;18.78;47.23
5679;BME280;2862;52.560;13.566;2022-07-06T00:30:13;101199.47;;;18.81;47.74
5679;BME280;2862;52.560;13.566;2022-07-06T00:40:17;101201.97;;;18.75;47.95
5679;BME280;2862;52.560;13.566;2022-07-06T00:50:21;101204.00;;;18.65;48.25
5679;BME280;2862;52.560;13.566;2022-07-06T01:00:27;101200.25;;;18.41;49.66
5679;BME280;2862;52.560;13.566;2022-07-06T01:10:30;101209.88;;;18.36;49.58
5679;BME280;2862;52.560;13.566;2022-07-06T01:20:34;101201.72;;;18.27;50.26
5679;BME280;2862;52.560;13.566;2022-07-06T01:30:37;101204.31;;;18.37;49.69
5679;BME280;2862;52.560;13.566;2022-07-06T01:40:42;101203.06;;;18.07;51.00
5679;BME280;2862;52.560;13.566;2022-07-06T01:50:45;101192.59;;;18.20;50.85
5679;BME280;2862;52.560;13.566;2022-07-06T02:00:50;101201.41;;;18.30;50.99
5679;BME280;2862;52.560;13.566;2022-07-06T02:10:53;101200.72;;;18.20;50.51
5679;BME280;2862;52.560;13.566;2022-07-06T02:20:58;101210.78;;;17.94;50.82
5679;BME280;2862;52.560;13.566;2022-07-06T02:31:01;101230.72;;;18.35;50.08
5679;BME280;2862;52.560;13.566;2022-07-06T02:41:06;101247.53;;;18.71;50.33
5679;BME280;2862;52.560;13.566;2022-07-06T02:51:09;101258.31;;;18.55;54.41
5679;BME280;2862;52.560;13.566;2022-07-06T03:01:13;101258.28;;;18.39;56.36
5679;BME280;2862;52.560;13.566;2022-07-06T03:11:18;101261.47;;;18.34;58.89
5679;BME280;2862;52.560;13.566;2022-07-06T03:21:22;101253.69;;;18.31;60.51
5679;BME280;2862;52.560;13.566;2022-07-06T03:31:26;101262.13;;;18.20;59.69
5679;BME280;2862;52.560;13.566;2022-07-06T03:41:30;101265.38;;;18.40;60.00
5679;BME280;2862;52.560;13.566;2022-07-06T03:51:34;101258.44;;;18.37;59.93
5679;BME280;2862;52.560;13.566;2022-07-06T04:01:38;101251.72;;;18.66;59.76
5679;BME280;2862;52.560;13.566;2022-07-06T04:11:43;101257.72;;;18.94;57.50
5679;BME280;2862;52.560;13.566;2022-07-06T04:21:48;101252.84;;;19.85;56.40
5679;BME280;2862;52.560;13.566;2022-07-06T04:31:52;101249.06;;;25.79;40.80
5679;BME280;2862;52.560;13.566;2022-07-06T04:41:57;101239.34;;;29.12;33.74
5679;BME280;2862;52.560;13.566;2022-07-06T04:52:00;101252.59;;;24.41;42.07
5679;BME280;2862;52.560;13.566;2022-07-06T05:02:06;101231.19;;;31.73;28.18
5679;BME280;2862;52.560;13.566;2022-07-06T05:12:10;101234.59;;;34.73;23.42
5679;BME280;2862;52.560;13.566;2022-07-06T05:22:15;101254.25;;;33.36;25.60
5679;BME280;2862;52.560;13.566;2022-07-06T05:32:18;101247.31;;;36.80;20.87
5679;BME280;2862;52.560;13.566;2022-07-06T05:42:23;101243.03;;;38.98;17.72
5679;BME280;2862;52.560;13.566;2022-07-06T05:52:26;101232.34;;;40.29;15.97
5679;BME280;2862;52.560;13.566;2022-07-06T06:02:37;101235.69;;;40.68;14.73
5679;BME280;2862;52.560;13.566;2022-07-06T06:12:44;101241.53;;;39.66;15.43
5679;BME280;2862;52.560;13.566;2022-07-06T06:22:51;101243.28;;;40.03;15.16
5679;BME280;2862;52.560;13.566;2022-07-06T06:33:13;101241.41;;;40.26;14.46
5679;BME280;2862;52.560;13.566;2022-07-06T06:43:18;101237.72;;;40.40;14.42
5679;BME280;2862;52.560;13.566;2022-07-06T06:53:31;101237.53;;;41.88;13.32
5679;BME280;2862;52.560;13.566;2022-07-06T07:03:39;101235.94;;;41.64;13.15
5679;BME280;2862;52.560;13.566;2022-07-06T07:13:42;101259.25;;;33.02;21.56
5679;BME280;2862;52.560;13.566;2022-07-06T07:23:46;101244.34;;;37.64;16.34
5679;BME280;2862;52.560;13.566;2022-07-06T07:33:49;101260.56;;;31.07;24.32
5679;BME280;2862;52.560;13.566;2022-07-06T07:43:57;101271.28;;;29.66;23.60
5679;BME280;2862;52.560;13.566;2022-07-06T07:54:00;101266.53;;;34.81;18.65
5679;BME280;2862;52.560;13.566;2022-07-06T08:04:04;101260.03;;;32.43;21.11
5679;BME280;2862;52.560;13.566;2022-07-06T08:14:08;101277.56;;;27.06;27.23
5679;BME280;2862;52.560;13.566;2022-07-06T08:24:12;101291.41;;;24.97;31.43
5679;BME280;2862;52.560;13.566;2022-07-06T08:34:15;101292.88;;;25.00;32.67
5679;BME280;2862;52.560;13.566;2022-07-06T08:44:19;101286.56;;;24.86;32.33
5679;BME280;2862;52.560;13.566;2022-07-06T08:54:22;101288.28;;;24.26;33.30
5679;BME280;2862;52.560;13.566;2022-07-06T09:04:26;101295.69;;;23.13;34.53
5679;BME280;2862;52.560;13.566;2022-07-06T09:14:29;101290.19;;;22.70;34.94
5679;BME280;2862;52.560;13.566;2022-07-06T09:24:38;101304.84;;;23.05;34.27
5679;BME280;2862;52.560;13.566;2022-07-06T09:34:44;101295.97;;;24.09;31.24
5679;BME280;2862;52.560;13.566;2022-07-06T09:44:49;101302.56;;;23.87;29.80
5679;BME280;2862;52.560;13.566;2022-07-06T09:54:52;101295.28;;;23.16;31.16
5679;BME280;2862;52.560;13.566;2022-07-06T10:04:56;101304.97;;;22.97;32.30
5679;BME280;2862;52.560;13.566;2022-07-06T10:15:03;101298.25;;;23.71;31.41
5679;BME280;2862;52.560;13.566;2022-07-06T10:25:08;101311.66;;;22.95;33.08
5679;BME280;2862;52.560;13.566;2022-07-06T10:35:12;101322.94;;;22.92;33.38
5679;BME280;2862;52.560;13.566;2022-07-06T10:45:20;101309.13;;;23.15;33.88
5679;BME280;2862;52.560;13.566;2022-07-06T10:55:44;101299.97;;;23.78;31.91
5679;BME280;2862;52.560;13.566;2022-07-06T11:05:57;101293.59;;;24.41;30.95
5679;BME280;2862;52.560;13.566;2022-07-06T11:16:09;101294.53;;;24.68;30.01
5679;BME280;2862;52.560;13.566;2022-07-06T11:26:14;101285.50;;;24.80;30.53
5679;BME280;2862;52.560;13.566;2022-07-06T11:36:18;101281.66;;;24.14;31.56
5679;BME280;2862;52.560;13.566;2022-07-06T11:46:27;101291.06;;;22.92;33.23
5679;BME280;2862;52.560;13.566;2022-07-06T11:56:30;101292.75;;;23.15;34.03
5679;BME280;2862;52.560;13.566;2022-07-06T12:06:34;101284.19;;;23.46;33.45
5679;BME280;2862;52.560;13.566;2022-07-06T12:16:40;101265.94;;;24.16;31.14
5679;BME280;2862;52.560;13.566;2022-07-06T12:26:45;101259.72;;;24.35;31.79
5679;BME280;2862;52.560;13.566;2022-07-06T12:36:48;101273.22;;;24.43;31.71
5679;BME280;2862;52.560;13.566;2022-07-06T12:47:02;101257.28;;;24.67;30.23
5679;BME280;2862;52.560;13.566;2022-07-06T12:57:10;101261.09;;;24.99;29.71
5679;BME280;2862;52.560;13.566;2022-07-06T13:07:18;101265.44;;;24.47;30.32
5679;BME280;2862;52.560;13.566;2022-07-06T13:17:22;101259.41;;;24.84;30.21
5679;BME280;2862;52.560;13.566;2022-07-06T13:27:26;101253.94;;;24.17;31.16
5679;BME280;2862;52.560;13.566;2022-07-06T13:37:29;101240.81;;;24.47;31.47
5679;BME280;2862;52.560;13.566;2022-07-06T13:47:33;101249.91;;;24.06;31.81
5679;BME280;2862;52.560;13.566;2022-07-06T13:57:36;101247.59;;;24.03;29.97
5679;BME280;2862;52.560;13.566;2022-07-06T14:07:40;101241.03;;;24.39;29.32
5679;BME280;2862;52.560;13.566;2022-07-06T14:17:43;101228.47;;;24.03;30.09
5679;BME280;2862;52.560;13.566;2022-07-06T14:27:48;101220.97;;;24.31;29.84
5679;BME280;2862;52.560;13.566;2022-07-06T14:37:51;101229.06;;;24.59;28.33
5679;BME280;2862;52.560;13.566;2022-07-06T14:47:55;101224.69;;;24.04;29.06
5679;BME280;2862;52.560;13.566;2022-07-06T14:57:58;101225.72;;;23.33;30.90
5679;BME280;2862;52.560;13.566;2022-07-06T15:08:02;101234.69;;;23.55;31.18
5679;BME280;2862;52.560;13.566;2022-07-06T15:18:06;101243.94;;;23.26;32.72
5679;BME280;2862;52.560;13.566;2022-07-06T15:28:10;101239.38;;;22.63;34.20
5679;BME280;2862;52.560;13.566;2022-07-06T15:38:14;101240.53;;;22.17;35.63
5679;BME280;2862;52.560;13.566;2022-07-06T15:48:18;101244.31;;;21.87;36.01
5679;BME280;2862;52.560;13.566;2022-07-06T15:58:21;101229.00;;;21.71;36.59
5679;BME280;2862;52.560;13.566;2022-07-06T16:08:26;101222.38;;;21.73;36.41
5679;BME280;2862;52.560;13.566;2022-07-06T16:18:39;101216.97;;;21.95;36.52
5679;BME280;2862;52.560;13.566;2022-07-06T16:28:44;101204.75;;;22.42;36.09
5679;BME280;2862;52.560;13.566;2022-07-06T16:38:47;101203.22;;;22.54;35.12
5679;BME280;2862;52.560;13.566;2022-07-06T16:48:51;101179.13;;;22.36;34.99
5679;BME280;2862;52.560;13.566;2022-07-06T16:58:54;101184.78;;;22.35;33.81
5679;BME280;2862;52.560;13.566;2022-07-06T17:09:02;101174.97;;;22.40;34.27
5679;BME280;2862;52.560;13.566;2022-07-06T17:19:04;101174.06;;;21.97;34.44
5679;BME280;2862;52.560;13.566;2022-07-06T17:29:09;101178.28;;;21.85;34.98
5679;BME280;2862;52.560;13.566;2022-07-06T17:39:11;101163.06;;;21.90;35.68
5679;BME280;2862;52.560;13.566;2022-07-06T17:49:16;101173.03;;;21.83;35.72
5679;BME280;2862;52.560;13.566;2022-07-06T17:59:20;101164.53;;;21.71;36.15
5679;BME280;2862;52.560;13.566;2022-07-06T18:09:24;101158.56;;;21.46;37.06
5679;BME280;2862;52.560;13.566;2022-07-06T18:19:27;101163.16;;;21.31;38.23
5679;BME280;2862;52.560;13.566;2022-07-06T18:29:31;101164.31;;;20.99;38.49
5679;BME280;2862;52.560;13.566;2022-07-06T18:39:34;101153.22;;;20.86;38.94
5679;BME280;2862;52.560;13.566;2022-07-06T18:49:37;101152.81;;;20.74;39.66
5679;BME280;2862;52.560;13.566;2022-07-06T18:59:40;101149.09;;;20.52;39.50
5679;BME280;2862;52.560;13.566;2022-07-06T19:09:45;101157.13;;;20.46;38.84
5679;BME280;2862;52.560;13.566;2022-07-06T19:19:48;101141.34;;;20.41;37.76
5679;BME280;2862;52.560;13.566;2022-07-06T19:29:53;101152.69;;;20.22;37.39
5679;BME280;2862;52.560;13.566;2022-07-06T19:39:56;101147.78;;;19.94;37.80
5679;BME280;2862;52.560;13.566;2022-07-06T19:50:03;101146.88;;;19.71;38.67
5679;BME280;2862;52.560;13.566;2022-07-06T20:00:07;101141.69;;;19.53;39.47
5679;BME280;2862;52.560;13.566;2022-07-06T20:10:11;101141.25;;;19.25;40.10
5679;BME280;2862;52.560;13.566;2022-07-06T20:20:15;101138.13;;;19.05;40.97
5679;BME280;2862;52.560;13.566;2022-07-06T20:30:20;101133.91;;;18.94;41.93
5679;BME280;2862;52.560;13.566;2022-07-06T20:40:23;101120.34;;;18.86;41.13
5679;BME280;2862;52.560;13.566;2022-07-06T20:50:27;101117.16;;;18.82;42.36
5679;BME280;2862;52.560;13.566;2022-07-06T21:00:30;101116.81;;;18.77;42.08
5679;BME280;2862;52.560;13.566;2022-07-06T21:10:35;101115.78;;;18.62;42.57
5679;BME280;2862;52.560;13.566;2022-07-06T21:20:38;101103.97;;;18.47;43.16
5679;BME280;2862;52.560;13.566;2022-07-06T21:30:44;101095.66;;;18.32;44.25
5679;BME280;2862;52.560;13.566;2022-07-06T21:40:47;101099.56;;;18.29;44.46
5679;BME280;2862;52.560;13.566;2022-07-06T21:50:51;101097.69;;;18.14;44.80
5679;BME280;2862;52.560;13.566;2022-07-06T22:00:55;101083.44;;;17.87;45.91
5679;BME280;2862;52.560;13.566;2022-07-06T22:10:59;101082.03;;;17.67;46.82
5679;BME280;2862;52.560;13.566;2022-07-06T22:21:02;101074.22;;;17.64;47.13
5679;BME280;2862;52.560;13.566;2022-07-06T22:31:07;101061.03;;;17.61;47.55
5679;BME280;2862;52.560;13.566;2022-07-06T22:41:11;101056.97;;;17.57;47.68
5679;BME280;2862;52.560;13.566;2022-07-06T22:51:15;101056.91;;;17.40;49.50
5679;BME280;2862;52.560;13.566;2022-07-06T23:01:18;101044.41;;;17.39;49.80
5679;BME280;2862;52.560;13.566;2022-07-06T23:11:23;101036.72;;;17.61;49.30
5679;BME280;2862;52.560;13.566;2022-07-06T23:21:26;101021.69;;;17.66;48.19
5679;BME280;2862;52.560;13.566;2022-07-06T23:31:31;101009.31;;;17.56;48.65
5679;BME280;2862;52.560;13.566;2022-07-06T23:41:34;100986.84;;;17.63;49.20
5679;BME280;2862;52.560;13.566;2022-07-06T23:51:38;100990.09;;;17.75;46.54
